Time;durP1;ratioP1;P1;durP2;ratioP2;P2;SDS_P1;SDS_P2;PMS_P1;PMS_P2;Temp;Humidity;BMP_temperature;BMP_pressure;BME280_temperature;BME280_humidity;BME280_pressure;Samples;Min_cycle;Max_cycle;Signal;HPM_P1;HPM_P2
2023/12/21 05:50:56;;;;;;;;;;;;;;;3.08;100.00;99021.64;109102;1273;23057;-48
2023/12/21 05:53:23;;;;;;;;;;;;;;;3.00;100.00;99025.19;109595;1268;22622;-55
2023/12/21 05:55:49;;;;;;;;;;;;;;;2.95;100.00;99027.70;109617;1257;22574;-54
2023/12/21 05:58:16;;;;;;;;;;;;;;;2.91;100.00;99029.75;110009;1265;23183;-48
2023/12/21 06:00:42;;;;;;;;;;;;;;;2.87;100.00;99027.98;109932;1272;22508;-48
2023/12/21 06:03:09;;;;;;;;;;;;;;;2.84;100.00;99030.87;110070;1264;22507;-47
2023/12/21 06:05:36;;;;;;;;;;;;;;;2.83;100.00;99032.40;109987;1272;22450;-48
2023/12/21 06:08:02;;;;;;;;;;;;;;;2.82;100.00;99034.80;109999;1269;22432;-54
2023/12/21 06:10:29;;;;;;;;;;;;;;;2.81;100.00;99038.59;109988;1269;22439;-54
2023/12/21 06:12:56;;;;;;;;;;;;;;;2.81;100.00;99038.07;110056;1268;22422;-54
2023/12/21 06:15:22;;;;;;;;;;;;;;;2.81;100.00;99038.77;109927;1265;23254;-54
2023/12/21 06:17:49;;;;;;;;;;;;;;;2.82;100.00;99035.84;109972;1269;22771;-47
2023/12/21 06:20:16;;;;;;;;;;;;;;;2.83;100.00;99035.50;109872;1266;22539;-48
2023/12/21 06:22:43;;;;;;;;;;;;;;;2.85;100.00;99039.67;109474;1273;22504;-54
2023/12/21 06:25:11;;;;;;;;;;;;;;;2.86;100.00;99038.83;109636;1265;22506;-48
2023/12/21 06:27:38;;;;;;;;;;;;;;;2.87;100.00;99039.86;109183;1272;22548;-47
2023/12/21 06:30:05;;;;;;;;;;;;;;;2.88;100.00;99040.73;109234;1271;22604;-48
2023/12/21 06:32:51;;;;;;;;;;;;;;;2.88;100.00;99039.02;109124;1273;26160;-53
2023/12/21 06:35:50;;;;;;;;;;;;;;;2.90;100.00;99043.88;109305;1272;22510;-48
2023/12/21 06:38:20;;;;;;;;;;;;;;;2.92;100.00;99044.91;108793;1273;23370;-53
2023/12/21 06:40:58;;;;;;;;;;;;;;;2.95;100.00;99042.34;108652;1272;22600;-49
2023/12/21 06:44:01;;;;;;;;;;;;;;;2.97;100.00;99042.39;109017;1273;22486;-55
2023/12/21 06:46:40;;;;;;;;;;;;;;;2.99;100.00;99042.57;109290;1272;22534;-48
2023/12/21 06:49:13;;;;;;;;;;;;;;;3.00;100.00;99039.65;109441;1272;22881;-55
2023/12/21 06:52:11;;;;;;;;;;;;;;;3.00;100.00;99037.92;109472;1269;23214;-46
2023/12/21 06:54:58;;;;;;;;;;;;;;;3.00;100.00;99037.59;109315;1275;23561;-54
2023/12/21 06:57:31;;;;;;;;;;;;;;;3.04;100.00;99035.05;109127;1263;24037;-52
2023/12/21 06:59:58;;;;;;;;;;;;;;;3.13;100.00;99028.08;109572;1265;22481;-46
2023/12/21 07:02:33;;;;;;;;;;;;;;;3.23;100.00;99030.23;108782;1271;22551;-49
2023/12/21 07:05:09;;;;;;;;;;;;;;;3.34;100.00;99030.86;109110;1276;23696;-54
2023/12/21 07:07:54;;;;;;;;;;;;;;;3.44;100.00;99035.77;108989;1272;22481;-53
2023/12/21 07:10:23;;;;;;;;;;;;;;;3.53;100.00;99033.08;108803;1274;22521;-48
2023/12/21 07:12:52;;;;;;;;;;;;;;;3.62;100.00;99030.55;108989;1272;22938;-47
2023/12/21 07:15:42;;;;;;;;;;;;;;;3.74;100.00;99028.41;108971;1273;24254;-47
2023/12/21 07:18:45;;;;;;;;;;;;;;;3.88;100.00;99036.44;108831;1268;23265;-53
2023/12/21 07:21:30;;;;;;;;;;;;;;;3.99;100.00;99028.76;109351;1275;22513;-54
2023/12/21 07:24:28;;;;;;;;;;;;;;;4.08;100.00;99031.39;108871;1272;22589;-46
2023/12/21 07:27:44;;;;;;;;;;;;;;;4.15;100.00;99026.08;109481;1275;22517;-47
2023/12/21 07:30:29;;;;;;;;;;;;;;;4.14;100.00;99027.81;109775;1272;22445;-48
2023/12/21 07:33:20;;;;;;;;;;;;;;;4.10;100.00;99029.85;109544;1261;22528;-48
2023/12/21 07:35:49;;;;;;;;;;;;;;;4.08;100.00;99036.23;109810;1272;22567;-47
2023/12/21 07:38:17;;;;;;;;;;;;;;;4.11;100.00;99044.35;109699;1273;22538;-47
2023/12/21 07:40:44;;;;;;;;;;;;;;;4.16;100.00;99052.16;109565;1268;22637;-53
2023/12/21 07:43:11;;;;;;;;;;;;;;;4.23;100.00;99061.17;109828;1272;22519;-53
2023/12/21 07:45:40;;;;;;;;;;;;;;;4.28;100.00;99066.38;108610;1278;22490;-47
2023/12/21 07:48:09;;;;;;;;;;;;;;;4.36;100.00;99070.22;109684;1278;22450;-47
2023/12/21 07:50:36;;;;;;;;;;;;;;;4.43;100.00;99066.45;109106;1272;22960;-46
2023/12/21 07:53:03;;;;;;;;;;;;;;;4.49;100.00;99068.05;109754;1279;22497;-49
2023/12/21 07:55:32;;;;;;;;;;;;;;;4.57;100.00;99069.81;109395;1278;22986;-46
2023/12/21 07:58:10;;;;;;;;;;;;;;;4.66;100.00;99071.58;109198;1273;23345;-47
2023/12/21 08:00:37;;;;;;;;;;;;;;;4.75;100.00;99074.38;109807;1276;22591;-47
2023/12/21 08:03:05;;;;;;;;;;;;;;;4.83;100.00;99074.23;108934;1278;22511;-46
2023/12/21 08:05:34;;;;;;;;;;;;;;;4.88;100.00;99071.83;109093;1274;22624;-46
2023/12/21 08:08:33;;;;;;;;;;;;;;;4.90;100.00;99064.41;109425;1272;22756;-53
2023/12/21 08:11:23;;;;;;;;;;;;;;;4.94;100.00;99055.79;109298;1272;22580;-53
2023/12/21 08:14:00;;;;;;;;;;;;;;;5.03;100.00;99047.17;108743;1273;22550;-54
2023/12/21 08:16:41;;;;;;;;;;;;;;;5.10;100.00;99045.28;108721;1273;22510;-46
2023/12/21 08:19:14;;;;;;;;;;;;;;;5.13;100.00;99046.15;108583;1271;22544;-46
2023/12/21 08:27:06;;;;;;;;;;;;;;;5.20;100.00;99037.68;109145;1273;22625;-47
2023/12/21 08:30:58;;;;;;;;;;;;;;;5.18;100.00;99031.82;109065;1272;24274;-46
2023/12/21 08:34:37;;;;;;;;;;;;;;;5.16;100.00;99030.77;108877;1274;22562;-48
2023/12/21 08:37:39;;;;;;;;;;;;;;;5.19;100.00;99030.09;109146;1274;22527;-53
2023/12/21 08:40:21;;;;;;;;;;;;;;;5.21;100.00;99026.97;108867;1273;22611;-46
2023/12/21 08:42:59;;;;;;;;;;;;;;;5.23;100.00;99028.89;109229;1275;22864;-46
2023/12/21 08:45:45;;;;;;;;;;;;;;;5.25;100.00;99025.08;108928;1274;23032;-46
2023/12/21 08:48:20;;;;;;;;;;;;;;;5.27;100.00;99023.52;108805;1273;24417;-52
2023/12/21 08:50:52;;;;;;;;;;;;;;;5.26;100.00;99025.95;108457;1275;22748;-53
2023/12/21 08:53:36;;;;;;;;;;;;;;;5.23;100.00;99026.12;108276;1279;22942;-54
2023/12/21 08:56:13;;;;;;;;;;;;;;;5.26;100.00;99027.15;108942;1275;22806;-47
2023/12/21 08:58:49;;;;;;;;;;;;;;;5.31;100.00;99020.41;108572;1275;22818;-46
2023/12/21 09:01:30;;;;;;;;;;;;;;;5.39;100.00;99008.66;109569;1268;22494;-46
2023/12/21 09:04:07;;;;;;;;;;;;;;;5.42;100.00;99006.94;109059;1273;22523;-46
2023/12/21 09:06:59;;;;;;;;;;;;;;;5.40;100.00;99003.13;109655;1278;23320;-54
2023/12/21 09:09:26;;;;;;;;;;;;;;;5.34;100.00;99002.79;109616;1272;22536;-55
2023/12/21 09:11:53;;;;;;;;;;;;;;;5.29;100.00;98994.66;109732;1274;22943;-46
2023/12/21 09:14:22;;;;;;;;;;;;;;;5.30;100.00;98993.96;109447;1275;22507;-48
2023/12/21 09:16:51;;;;;;;;;;;;;;;5.30;100.00;98996.39;109509;1267;22512;-53
2023/12/21 09:19:25;;;;;;;;;;;;;;;5.27;100.00;98999.49;108960;1271;22595;-54
2023/12/21 09:21:56;;;;;;;;;;;;;;;5.26;100.00;99002.08;108586;1273;22539;-47
2023/12/21 09:24:32;;;;;;;;;;;;;;;5.26;100.00;98998.62;109048;1272;23861;-47
2023/12/21 09:27:32;;;;;;;;;;;;;;;5.30;100.00;99006.06;108911;1275;22538;-52
2023/12/21 09:30:30;;;;;;;;;;;;;;;5.35;100.00;99001.41;109024;1273;22501;-48
2023/12/21 09:33:34;;;;;;;;;;;;;;;5.36;100.00;98991.02;108432;1272;22529;-48
2023/12/21 09:36:24;;;;;;;;;;;;;;;5.35;100.00;98989.48;108845;1276;22607;-53
2023/12/21 09:38:54;;;;;;;;;;;;;;;5.36;100.00;98985.84;108266;1278;23364;-52
2023/12/21 09:41:24;;;;;;;;;;;;;;;5.39;100.00;98987.39;108761;1280;23694;-53
2023/12/21 09:43:53;;;;;;;;;;;;;;;5.41;100.00;98991.04;109278;1271;22539;-46
2023/12/21 09:46:23;;;;;;;;;;;;;;;5.39;100.00;98988.44;109658;1273;22713;-46
2023/12/21 09:49:09;;;;;;;;;;;;;;;5.37;100.00;98986.52;108197;1279;22524;-55
2023/12/21 09:51:40;;;;;;;;;;;;;;;5.34;100.00;98987.75;109279;1274;23060;-46
2023/12/21 09:54:08;;;;;;;;;;;;;;;5.33;100.00;98987.21;109285;1273;22838;-52
2023/12/21 09:56:37;;;;;;;;;;;;;;;5.33;100.00;98985.48;108788;1274;23345;-47
2023/12/21 09:59:05;;;;;;;;;;;;;;;5.30;100.00;98978.58;108584;1269;22480;-54
2023/12/21 10:01:31;;;;;;;;;;;;;;;5.25;100.00;98968.36;109750;1272;22437;-55
2023/12/21 10:03:58;;;;;;;;;;;;;;;5.23;100.00;98963.89;109308;1276;22745;-46
2023/12/21 10:06:26;;;;;;;;;;;;;;;5.23;100.00;98961.30;109785;1275;22427;-53
2023/12/21 10:08:53;;;;;;;;;;;;;;;5.25;100.00;98960.60;109814;1272;22443;-48
2023/12/21 10:11:20;;;;;;;;;;;;;;;5.28;100.00;98956.44;109845;1273;22467;-46
2023/12/21 10:13:47;;;;;;;;;;;;;;;5.33;100.00;98957.48;109909;1275;22486;-54
2023/12/21 10:16:16;;;;;;;;;;;;;;;5.34;100.00;98955.41;109914;1275;22491;-54
2023/12/21 10:18:46;;;;;;;;;;;;;;;5.31;100.00;98951.60;109383;1272;22620;-46
2023/12/21 10:21:12;;;;;;;;;;;;;;;5.32;100.00;98950.73;109794;1262;22459;-46
2023/12/21 10:23:39;;;;;;;;;;;;;;;5.33;100.00;98950.73;109846;1275;22988;-47
2023/12/21 10:26:06;;;;;;;;;;;;;;;5.36;100.00;98949.70;109626;1275;22506;-55
2023/12/21 10:28:33;;;;;;;;;;;;;;;5.39;99.75;98955.39;109229;1273;22502;-54
2023/12/21 10:31:04;;;;;;;;;;;;;;;5.43;99.95;98955.40;109964;1275;22933;-47
2023/12/21 10:33:35;;;;;;;;;;;;;;;5.47;99.63;98955.75;109429;1281;22467;-52
2023/12/21 10:36:03;;;;;;;;;;;;;;;5.48;99.04;98955.23;109640;1278;23199;-53
2023/12/21 10:38:32;;;;;;;;;;;;;;;5.45;97.99;98951.43;109803;1275;249285;-53
2023/12/21 10:41:05;;;;;;;;;;;;;;;5.39;98.01;98949.18;109701;1279;23164;-54
2023/12/21 10:43:35;;;;;;;;;;;;;;;5.35;97.60;98948.67;109388;1273;22504;-47
2023/12/21 10:46:06;;;;;;;;;;;;;;;5.34;97.02;98935.52;109159;1276;22571;-53
2023/12/21 10:48:42;;;;;;;;;;;;;;;5.31;97.14;98929.99;108579;1278;22529;-47
2023/12/21 10:51:11;;;;;;;;;;;;;;;5.26;97.37;98926.54;108761;1273;25381;-53
2023/12/21 10:53:43;;;;;;;;;;;;;;;5.27;98.09;98926.53;109539;1275;22545;-47
2023/12/21 10:56:10;;;;;;;;;;;;;;;5.27;97.71;98922.02;109438;1273;22483;-47
2023/12/21 10:58:37;;;;;;;;;;;;;;;5.25;98.15;98917.89;108752;1273;22578;-53
2023/12/21 11:01:06;;;;;;;;;;;;;;;5.23;98.35;98910.81;109092;1273;22507;-47
2023/12/21 11:03:34;;;;;;;;;;;;;;;5.24;98.64;98904.94;109391;1275;23564;-47
2023/12/21 11:06:10;;;;;;;;;;;;;;;5.28;98.70;98904.75;109241;1264;22525;-46
2023/12/21 11:08:38;;;;;;;;;;;;;;;5.37;99.06;98900.95;109523;1272;22521;-47
2023/12/21 11:11:06;;;;;;;;;;;;;;;5.47;98.60;98896.77;109477;1272;22656;-53
2023/12/21 11:13:33;;;;;;;;;;;;;;;5.53;98.42;98900.74;109380;1272;22487;-47
2023/12/21 11:16:09;;;;;;;;;;;;;;;5.54;97.83;98893.30;108803;1272;22567;-53
2023/12/21 11:18:45;;;;;;;;;;;;;;;5.51;98.09;98892.10;109517;1273;23317;-54
2023/12/21 11:21:14;;;;;;;;;;;;;;;5.51;98.59;98891.77;109549;1273;22538;-52
2023/12/21 11:23:47;;;;;;;;;;;;;;;5.53;98.27;98882.23;109097;1280;22542;-53
2023/12/21 11:26:27;;;;;;;;;;;;;;;5.57;98.72;98888.11;109020;1279;22545;-54
2023/12/21 11:29:05;;;;;;;;;;;;;;;5.62;98.50;98890.34;109779;1274;22979;-47
2023/12/21 11:31:41;;;;;;;;;;;;;;;5.75;96.86;98883.73;109420;1279;23599;-46
2023/12/21 11:34:21;;;;;;;;;;;;;;;5.84;95.91;98881.27;108671;1276;22543;-47
2023/12/21 11:36:52;;;;;;;;;;;;;;;5.84;95.26;98885.42;109041;1278;23418;-46
2023/12/21 11:39:32;;;;;;;;;;;;;;;5.75;95.41;98882.69;109043;1279;24735;-47
2023/12/21 11:42:08;;;;;;;;;;;;;;;5.67;94.80;98890.33;108779;1277;23217;-52
2023/12/21 11:44:36;;;;;;;;;;;;;;;5.54;94.03;98888.64;109429;1273;23016;-52
2023/12/21 11:47:16;;;;;;;;;;;;;;;5.43;94.47;98883.29;109358;1272;23000;-47
2023/12/21 11:51:08;;;;;;;;;;;;;;;5.37;94.99;98881.91;108886;1274;22525;-53
2023/12/21 11:54:04;;;;;;;;;;;;;;;5.36;95.78;98885.04;109051;1276;22511;-47
2023/12/21 11:56:44;;;;;;;;;;;;;;;5.38;96.79;98883.98;109573;1276;22540;-48
2023/12/21 11:59:30;;;;;;;;;;;;;;;5.42;96.71;98877.42;108936;1279;22605;-46
2023/12/21 12:01:57;;;;;;;;;;;;;;;5.44;96.53;98882.06;109868;1271;23020;-54
2023/12/21 12:04:24;;;;;;;;;;;;;;;5.47;96.04;98875.16;109458;1273;22505;-47
2023/12/21 12:06:54;;;;;;;;;;;;;;;5.50;96.08;98870.14;109754;1272;22434;-46
2023/12/21 12:09:30;;;;;;;;;;;;;;;5.57;96.10;98867.17;109580;1273;23699;-55
2023/12/21 12:11:57;;;;;;;;;;;;;;;5.65;95.71;98859.71;109863;1261;22561;-47
2023/12/21 12:14:26;;;;;;;;;;;;;;;5.74;95.71;98857.27;109299;1275;23278;-47
2023/12/21 12:16:59;;;;;;;;;;;;;;;5.82;95.72;98853.61;109137;1276;22517;-53
2023/12/21 12:19:32;;;;;;;;;;;;;;;5.88;95.47;98851.16;108214;1275;23185;-54
2023/12/21 12:21:59;;;;;;;;;;;;;;;5.97;95.54;98849.08;109707;1262;22525;-47
2023/12/21 12:24:26;;;;;;;;;;;;;;;6.09;95.57;98855.25;109356;1272;22502;-54
2023/12/21 12:26:53;;;;;;;;;;;;;;;6.29;94.93;98851.33;109524;1269;22540;-48
2023/12/21 12:29:19;;;;;;;;;;;;;;;6.49;94.08;98854.85;109554;1273;22514;-48
2023/12/21 12:31:48;;;;;;;;;;;;;;;6.59;93.45;98857.55;108931;1269;24243;-53
2023/12/21 12:34:16;;;;;;;;;;;;;;;6.59;92.82;98855.48;109548;1275;23813;-49
2023/12/21 12:36:44;;;;;;;;;;;;;;;6.47;92.52;98853.48;109787;1269;23206;-47
2023/12/21 12:39:11;;;;;;;;;;;;;;;6.35;92.92;98851.14;109806;1272;23710;-53
2023/12/21 12:41:38;;;;;;;;;;;;;;;6.24;92.90;98845.65;109233;1272;22500;-47
2023/12/21 12:44:06;;;;;;;;;;;;;;;6.10;92.74;98847.27;109832;1273;22446;-47
2023/12/21 12:46:34;;;;;;;;;;;;;;;5.95;93.12;98844.06;109821;1273;24040;-48
2023/12/21 12:49:11;;;;;;;;;;;;;;;5.85;93.85;98845.45;109075;1275;22516;-49
2023/12/21 12:51:41;;;;;;;;;;;;;;;5.82;94.35;98843.73;109790;1279;22528;-48
2023/12/21 12:54:09;;;;;;;;;;;;;;;5.86;94.55;98847.70;109536;1279;22510;-48
2023/12/21 12:56:46;;;;;;;;;;;;;;;5.89;94.66;98845.61;109898;1279;23266;-49
2023/12/21 12:59:13;;;;;;;;;;;;;;;5.90;95.14;98845.77;109884;1279;22424;-53
2023/12/21 13:01:40;;;;;;;;;;;;;;;5.92;95.49;98847.02;108994;1279;23202;-54
2023/12/21 13:04:07;;;;;;;;;;;;;;;5.94;95.40;98845.80;109827;1279;22476;-53
2023/12/21 13:06:34;;;;;;;;;;;;;;;5.93;95.50;98842.17;109426;1271;25245;-54
2023/12/21 13:09:01;;;;;;;;;;;;;;;5.92;95.47;98838.38;109801;1279;22433;-53
2023/12/21 13:11:29;;;;;;;;;;;;;;;5.98;96.12;98842.32;108909;1278;23318;-47
2023/12/21 13:14:04;;;;;;;;;;;;;;;6.17;96.03;98841.70;109693;1273;22486;-47
2023/12/21 13:16:38;;;;;;;;;;;;;;;6.32;95.43;98835.39;108848;1273;22515;-47
2023/12/21 13:19:06;;;;;;;;;;;;;;;6.41;94.89;98832.91;109168;1272;22485;-53
2023/12/21 13:21:33;;;;;;;;;;;;;;;6.44;94.70;98830.30;109196;1258;22614;-53
2023/12/21 13:24:00;;;;;;;;;;;;;;;6.48;94.79;98829.57;109765;1274;22697;-46
2023/12/21 13:26:30;;;;;;;;;;;;;;;6.57;94.57;98825.70;109815;1279;22446;-48
2023/12/21 13:28:58;;;;;;;;;;;;;;;6.68;94.15;98818.34;109617;1276;22666;-53
2023/12/21 13:31:26;;;;;;;;;;;;;;;6.68;93.27;98812.62;109776;1265;22493;-47
2023/12/21 13:33:56;;;;;;;;;;;;;;;6.53;93.09;98814.28;108724;1275;22594;-46
2023/12/21 13:36:24;;;;;;;;;;;;;;;6.36;93.48;98812.67;108921;1275;22560;-47
2023/12/21 13:38:52;;;;;;;;;;;;;;;6.19;93.87;98810.88;109933;1279;22945;-52
2023/12/21 13:41:19;;;;;;;;;;;;;;;6.00;94.09;98816.34;109919;1275;23005;-47
2023/12/21 13:43:48;;;;;;;;;;;;;;;5.79;94.45;98818.84;108478;1275;22524;-48
2023/12/21 13:46:21;;;;;;;;;;;;;;;5.58;95.54;98819.42;109128;1278;23277;-53
2023/12/21 13:48:50;;;;;;;;;;;;;;;5.34;95.73;98818.80;108915;1272;22621;-45
2023/12/21 13:51:17;;;;;;;;;;;;;;;5.13;96.81;98818.16;109513;1273;22946;-54
2023/12/21 13:53:45;;;;;;;;;;;;;;;4.95;97.73;98814.38;108923;1275;22515;-52
2023/12/21 13:56:12;;;;;;;;;;;;;;;4.81;98.53;98820.27;109141;1274;22598;-47
2023/12/21 13:58:41;;;;;;;;;;;;;;;4.65;99.12;98821.30;109447;1271;22543;-47
2023/12/21 14:01:12;;;;;;;;;;;;;;;4.51;99.71;98818.35;108967;1277;24313;-47
2023/12/21 14:03:43;;;;;;;;;;;;;;;4.39;100.00;98818.17;108547;1278;23102;-47
2023/12/21 14:06:12;;;;;;;;;;;;;;;4.28;100.00;98815.23;108004;1275;22514;-51
2023/12/21 14:08:42;;;;;;;;;;;;;;;4.22;100.00;98812.79;109907;1275;23190;-53
2023/12/21 14:11:11;;;;;;;;;;;;;;;4.18;100.00;98815.55;109618;1281;22499;-53
2023/12/21 14:13:39;;;;;;;;;;;;;;;4.15;100.00;98824.16;109862;1273;22520;-47
2023/12/21 14:16:09;;;;;;;;;;;;;;;4.12;100.00;98819.16;109455;1262;22501;-47
2023/12/21 14:18:36;;;;;;;;;;;;;;;4.07;100.00;98815.86;110045;1270;22455;-47
2023/12/21 14:21:03;;;;;;;;;;;;;;;4.02;100.00;98804.45;109995;1269;22444;-47
2023/12/21 14:23:30;;;;;;;;;;;;;;;3.94;100.00;98802.89;109787;1279;22456;-53
2023/12/21 14:25:56;;;;;;;;;;;;;;;3.85;100.00;98800.98;110012;1268;22534;-54
2023/12/21 14:28:24;;;;;;;;;;;;;;;3.75;100.00;98800.41;109854;1279;22619;-47
2023/12/21 14:30:51;;;;;;;;;;;;;;;3.66;100.00;98806.08;110102;1268;23190;-53
2023/12/21 14:33:18;;;;;;;;;;;;;;;3.58;100.00;98804.14;109975;1279;22479;-52
2023/12/21 14:35:44;;;;;;;;;;;;;;;3.52;100.00;98801.17;110008;1268;23309;-47
2023/12/21 14:38:15;;;;;;;;;;;;;;;3.47;100.00;98799.09;109963;1279;23115;-47
2023/12/21 14:40:42;;;;;;;;;;;;;;;3.44;100.00;98796.33;109970;1279;22445;-47
2023/12/21 14:43:09;;;;;;;;;;;;;;;3.41;100.00;98794.58;109993;1279;23692;-52
2023/12/21 14:45:35;;;;;;;;;;;;;;;3.37;100.00;98794.41;110034;1279;23921;-53
2023/12/21 14:48:02;;;;;;;;;;;;;;;3.35;100.00;98790.41;110072;1279;22477;-47
2023/12/21 14:50:29;;;;;;;;;;;;;;;3.33;100.00;98790.93;110087;1279;22445;-52
2023/12/21 14:52:56;;;;;;;;;;;;;;;3.33;100.00;98784.38;110034;1272;22918;-47
2023/12/21 14:55:22;;;;;;;;;;;;;;;3.32;100.00;98778.00;110009;1265;23244;-52
2023/12/21 14:57:49;;;;;;;;;;;;;;;3.32;100.00;98779.90;109955;1268;22434;-53
2023/12/21 15:00:16;;;;;;;;;;;;;;;3.30;100.00;98772.98;109992;1280;22537;-52
2023/12/21 15:02:44;;;;;;;;;;;;;;;3.29;100.00;98776.42;109806;1279;22606;-49
2023/12/21 15:05:10;;;;;;;;;;;;;;;3.24;100.00;98769.69;107756;1270;22519;-53
2023/12/21 15:07:38;;;;;;;;;;;;;;;3.18;100.00;98771.72;107306;1279;26481;-53
2023/12/21 15:10:05;;;;;;;;;;;;;;;3.12;100.00;98769.11;107137;1279;24360;-52
2023/12/21 15:12:35;;;;;;;;;;;;;;;3.07;100.00;98764.59;107375;1279;22590;-49
2023/12/21 15:15:03;;;;;;;;;;;;;;;2.98;100.00;98755.41;107036;1279;22512;-54
2023/12/21 15:17:30;;;;;;;;;;;;;;;2.89;100.00;98751.73;107528;1265;25252;-52
2023/12/21 15:19:57;;;;;;;;;;;;;;;2.80;100.00;98747.55;107876;1279;23283;-53
